createdAt,value
2018-10-02T00:02:07.615Z,101369.20
2018-10-02T00:05:11.936Z,101361.66
2018-10-02T00:08:16.271Z,101358.68
2018-10-02T00:11:25.914Z,101355.77
2018-10-02T00:14:31.068Z,101361.99
2018-10-02T00:17:35.364Z,101361.75
2018-10-02T00:20:39.651Z,101356.88
2018-10-02T00:23:43.942Z,101346.70
2018-10-02T00:26:48.242Z,101340.55
2018-10-02T00:29:52.524Z,101331.34
2018-10-02T00:32:56.797Z,101329.48
2018-10-02T00:36:01.115Z,101323.90
2018-10-02T00:39:06.356Z,101321.51
2018-10-02T00:42:10.700Z,101314.44
2018-10-02T00:45:15.016Z,101301.12
2018-10-02T00:48:19.481Z,101295.52
2018-10-02T00:51:23.745Z,101277.61
2018-10-02T00:54:28.035Z,101277.58
2018-10-02T00:57:32.299Z,101272.55
2018-10-02T01:00:36.593Z,101278.27
2018-10-02T01:03:40.941Z,101266.48
2018-10-02T01:06:45.251Z,101265.71
2018-10-02T01:09:49.542Z,101260.16
2018-10-02T01:12:54.905Z,101260.03
2018-10-02T01:15:59.231Z,101256.55
2018-10-02T01:19:03.474Z,101259.47
2018-10-02T01:22:07.808Z,101251.13
2018-10-02T01:25:12.094Z,101254.70
2018-10-02T01:28:16.367Z,101248.80
2018-10-02T01:31:20.652Z,101241.08
2018-10-02T01:34:24.947Z,101224.53
2018-10-02T01:37:29.238Z,101211.88
2018-10-02T01:40:33.553Z,101210.52
2018-10-02T01:43:37.828Z,101201.06
2018-10-02T01:46:42.134Z,101208.98
2018-10-02T01:49:46.454Z,101204.23
2018-10-02T01:52:50.724Z,101198.64
2018-10-02T01:55:55.018Z,101192.52
2018-10-02T01:58:59.288Z,101191.44
2018-10-02T02:02:03.592Z,101184.68
2018-10-02T02:05:08.243Z,101182.83
2018-10-02T02:08:12.535Z,101181.94
2018-10-02T02:11:16.828Z,101182.56
2018-10-02T02:14:21.192Z,101174.73
2018-10-02T02:17:25.471Z,101171.18
2018-10-02T02:20:29.771Z,101163.84
2018-10-02T02:23:34.056Z,101155.74
2018-10-02T02:26:38.356Z,101145.47
2018-10-02T02:29:42.655Z,101145.59
2018-10-02T02:32:46.940Z,101153.77
2018-10-02T02:35:51.220Z,101157.12
2018-10-02T02:38:55.512Z,101162.95
2018-10-02T02:41:59.840Z,101159.75
2018-10-02T02:45:04.081Z,101166.11
2018-10-02T02:48:13.769Z,101163.10
2018-10-02T02:51:19.919Z,101164.45
2018-10-02T02:54:24.228Z,101154.99
2018-10-02T02:57:28.492Z,101147.00
2018-10-02T03:00:32.797Z,101130.08
2018-10-02T03:03:37.056Z,101138.11
2018-10-02T03:06:41.367Z,101130.15
2018-10-02T03:09:45.679Z,101139.41
2018-10-02T03:12:49.958Z,101126.71
2018-10-02T03:15:54.273Z,101116.05
2018-10-02T03:18:58.605Z,101116.70
2018-10-02T03:22:02.920Z,101123.67
2018-10-02T03:25:07.189Z,101131.94
2018-10-02T03:28:11.506Z,101127.88
2018-10-02T03:31:15.804Z,101098.53
2018-10-02T03:34:20.135Z,101088.42
2018-10-02T03:37:24.416Z,101102.05
2018-10-02T03:40:28.745Z,101113.12
2018-10-02T03:43:33.035Z,101113.12
2018-10-02T03:46:37.333Z,101090.64
2018-10-02T03:49:41.664Z,101090.64
2018-10-02T03:52:45.927Z,101087.73
2018-10-02T03:55:50.229Z,101089.94
2018-10-02T03:58:54.501Z,101099.20
2018-10-02T04:01:58.781Z,101088.73
2018-10-02T04:05:03.070Z,101088.73
2018-10-02T04:08:07.488Z,101078.73
2018-10-02T04:11:11.737Z,101075.72
2018-10-02T04:14:16.060Z,101078.33
2018-10-02T04:17:20.357Z,101072.11
2018-10-02T04:20:24.644Z,101065.01
2018-10-02T04:23:28.929Z,101061.48
2018-10-02T04:26:33.848Z,101053.88
2018-10-02T04:29:38.141Z,101054.73
2018-10-02T04:32:42.476Z,101044.42
2018-10-02T04:35:46.808Z,101043.91
2018-10-02T04:38:51.140Z,101036.11
2018-10-02T04:41:55.431Z,101026.64
2018-10-02T04:44:59.741Z,101025.09
2018-10-02T04:48:03.980Z,101021.68
2018-10-02T04:51:08.267Z,101019.59
2018-10-02T04:54:12.564Z,101028.55
2018-10-02T04:57:16.824Z,101031.36
2018-10-02T05:00:21.091Z,101025.84
2018-10-02T05:03:25.335Z,101009.31
2018-10-02T05:06:29.613Z,100998.16
2018-10-02T05:09:33.905Z,101001.06
2018-10-02T05:12:38.202Z,100997.34
2018-10-02T05:15:42.542Z,100991.19
2018-10-02T05:18:46.846Z,100983.42
2018-10-02T05:21:51.107Z,100964.28
2018-10-02T05:24:55.348Z,100962.53
2018-10-02T05:27:59.619Z,100954.95
2018-10-02T05:31:04.333Z,100950.96
2018-10-02T05:34:08.601Z,100949.97
2018-10-02T05:37:13.027Z,100944.27
2018-10-02T05:40:17.258Z,100936.41
2018-10-02T05:43:21.546Z,100934.46
2018-10-02T05:46:25.841Z,100927.39
2018-10-02T05:49:30.093Z,100927.91
2018-10-02T05:52:34.373Z,100919.67
2018-10-02T05:55:38.629Z,100910.11
2018-10-02T05:58:42.936Z,100910.12
2018-10-02T06:01:47.274Z,100904.07
2018-10-02T06:04:51.521Z,100896.16
2018-10-02T06:07:57.385Z,100890.41
2018-10-02T06:11:02.822Z,100885.20
2018-10-02T06:14:07.353Z,100879.91
2018-10-02T06:17:11.615Z,100875.51
2018-10-02T06:20:15.876Z,100863.23
2018-10-02T06:23:20.141Z,100854.68
2018-10-02T06:26:24.438Z,100842.70
2018-10-02T06:29:28.712Z,100840.20
2018-10-02T06:32:33.009Z,100837.58
2018-10-02T06:35:37.288Z,100833.94
2018-10-02T06:38:41.688Z,100831.09
2018-10-02T06:41:45.858Z,100830.04
2018-10-02T06:44:50.149Z,100822.95
2018-10-02T06:47:54.410Z,100820.55
2018-10-02T06:50:58.727Z,100821.09
2018-10-02T06:54:03.052Z,100826.47
2018-10-02T06:57:07.480Z,100817.52
2018-10-02T07:00:11.725Z,100813.11
2018-10-02T07:03:16.186Z,100812.16
2018-10-02T07:06:20.445Z,100803.89
2018-10-02T07:09:24.736Z,100801.19
2018-10-02T07:12:29.045Z,100789.39
2018-10-02T07:15:33.314Z,100793.11
2018-10-02T07:18:37.612Z,100785.09
2018-10-02T07:21:41.878Z,100769.74
2018-10-02T07:24:46.188Z,100769.74
2018-10-02T07:27:50.629Z,100753.77
2018-10-02T07:30:54.826Z,100748.86
2018-10-02T07:33:59.111Z,100746.91
2018-10-02T07:37:03.399Z,100769.33
2018-10-02T07:40:07.702Z,100759.00
2018-10-02T07:43:11.997Z,100736.17
2018-10-02T07:46:16.284Z,100731.19
2018-10-02T07:49:20.574Z,100719.41
2018-10-02T07:52:24.907Z,100711.83
2018-10-02T07:55:29.202Z,100710.28
2018-10-02T07:58:33.533Z,100695.48
2018-10-02T08:01:37.828Z,100686.77
2018-10-02T08:04:42.209Z,100678.41
2018-10-02T08:07:46.487Z,100661.52
2018-10-02T08:10:51.972Z,100675.16
2018-10-02T08:13:56.380Z,100662.88
2018-10-02T08:17:00.639Z,100661.81
2018-10-02T08:20:05.037Z,100647.67
2018-10-02T08:23:09.300Z,100642.77
2018-10-02T08:26:13.597Z,100628.16
2018-10-02T08:29:17.894Z,100631.41
2018-10-02T08:32:22.189Z,100612.73
2018-10-02T08:35:26.513Z,100616.44
2018-10-02T08:38:30.763Z,100601.01
2018-10-02T08:41:35.058Z,100593.17
2018-10-02T08:44:39.441Z,100584.30
2018-10-02T08:47:43.652Z,100571.66
2018-10-02T08:50:47.928Z,100572.68
2018-10-02T08:53:52.270Z,100565.58
2018-10-02T08:56:56.516Z,100561.39
2018-10-02T09:00:00.772Z,100553.10
2018-10-02T09:03:05.120Z,100546.99
2018-10-02T09:06:09.365Z,100534.33
2018-10-02T09:09:14.172Z,100524.32
2018-10-02T09:12:18.439Z,100520.08
2018-10-02T09:15:22.726Z,100521.22
2018-10-02T09:18:27.097Z,100518.80
2018-10-02T09:21:31.416Z,100514.83
2018-10-02T09:24:35.722Z,100494.41
2018-10-02T09:27:40.070Z,100490.22
2018-10-02T09:30:49.554Z,100482.38
2018-10-02T09:33:59.209Z,100495.95
2018-10-02T09:38:10.282Z,100481.71
2018-10-02T09:41:19.813Z,100468.63
2018-10-02T09:44:24.129Z,100458.30
2018-10-02T09:47:28.396Z,100447.15
2018-10-02T09:50:32.716Z,100433.28
2018-10-02T09:53:36.996Z,100430.03
2018-10-02T09:56:42.689Z,100434.03
2018-10-02T09:59:46.959Z,100420.89
2018-10-02T10:02:56.272Z,100409.38
2018-10-02T10:06:00.502Z,100407.38
2018-10-02T10:09:05.749Z,100403.97
2018-10-02T10:12:10.049Z,100416.05
2018-10-02T10:15:14.317Z,100403.13
2018-10-02T10:18:18.999Z,100387.22
2018-10-02T10:21:23.284Z,100387.64
2018-10-02T10:24:27.565Z,100398.70
2018-10-02T10:27:31.827Z,100390.73
2018-10-02T10:30:36.125Z,100390.40
2018-10-02T10:33:40.416Z,100372.27
2018-10-02T10:36:44.706Z,100381.96
2018-10-02T10:39:49.040Z,100382.45
2018-10-02T10:42:53.280Z,100389.11
2018-10-02T10:45:57.519Z,100391.20
2018-10-02T10:49:01.833Z,100394.38
2018-10-02T10:52:06.107Z,100388.55
2018-10-02T10:55:29.998Z,100372.45
2018-10-02T10:58:34.306Z,100372.77
2018-10-02T11:01:38.563Z,100367.11
2018-10-02T11:04:42.924Z,100364.41
2018-10-02T11:07:47.296Z,100364.17
2018-10-02T11:10:51.577Z,100356.70
2018-10-02T11:13:55.918Z,100353.45
2018-10-02T11:17:00.104Z,100362.03
2018-10-02T11:20:05.176Z,100364.32
2018-10-02T11:23:09.494Z,100362.46
2018-10-02T11:26:13.773Z,100365.55
2018-10-02T11:29:18.062Z,100368.05
2018-10-02T11:32:22.321Z,100370.13
2018-10-02T11:35:26.769Z,100370.05
2018-10-02T11:38:31.004Z,100360.27
2018-10-02T11:41:35.304Z,100370.34
2018-10-02T11:44:39.650Z,100376.97
2018-10-02T11:47:43.880Z,100380.25
2018-10-02T11:50:48.188Z,100375.32
2018-10-02T11:53:52.429Z,100361.84
2018-10-02T11:56:56.752Z,100367.39
2018-10-02T12:00:01.000Z,100375.42
2018-10-02T12:03:05.444Z,100376.51
2018-10-02T12:06:10.240Z,100399.47
2018-10-02T12:09:14.605Z,100382.04
2018-10-02T12:12:18.879Z,100388.45
2018-10-02T12:15:23.789Z,100381.72
2018-10-02T12:18:28.033Z,100393.72
2018-10-02T12:21:32.483Z,100386.75
2018-10-02T12:24:36.800Z,100378.80
2018-10-02T12:27:41.240Z,100394.88
2018-10-02T12:30:45.636Z,100397.41
2018-10-02T12:33:50.584Z,100391.45
2018-10-02T12:36:54.852Z,100401.31
2018-10-02T12:39:59.150Z,100401.69
2018-10-02T12:43:03.396Z,100412.95
2018-10-02T12:46:07.779Z,100415.78
2018-10-02T12:49:12.049Z,100419.58
2018-10-02T12:52:16.491Z,100413.20
2018-10-02T12:55:20.768Z,100431.47
2018-10-02T12:58:25.016Z,100427.19
2018-10-02T13:01:29.294Z,100427.97
2018-10-02T13:04:33.536Z,100432.11
2018-10-02T13:07:37.790Z,100430.75
2018-10-02T13:10:42.069Z,100434.28
2018-10-02T13:13:46.308Z,100427.53
2018-10-02T13:16:50.600Z,100432.23
2018-10-02T13:19:54.917Z,100431.46
2018-10-02T13:22:59.148Z,100429.10
2018-10-02T13:26:03.408Z,100430.34
2018-10-02T13:29:07.834Z,100436.53
2018-10-02T13:32:12.113Z,100436.33
2018-10-02T13:35:16.404Z,100437.84
2018-10-02T13:38:20.676Z,100439.99
2018-10-02T13:41:24.962Z,100455.88
2018-10-02T13:44:29.209Z,100444.09
2018-10-02T13:47:34.079Z,100446.48
2018-10-02T13:50:38.367Z,100443.20
2018-10-02T13:53:42.652Z,100430.75
2018-10-02T13:56:46.929Z,100441.67
2018-10-02T13:59:51.455Z,100449.22
2018-10-02T14:02:55.722Z,100469.99
2018-10-02T14:06:00.027Z,100461.83
2018-10-02T14:09:05.675Z,100471.49
2018-10-02T14:12:10.037Z,100474.17
2018-10-02T14:15:14.381Z,100478.60
2018-10-02T14:18:18.629Z,100483.08
2018-10-02T14:21:22.904Z,100475.58
2018-10-02T14:24:27.196Z,100467.20
2018-10-02T14:27:31.454Z,100471.69
2018-10-02T14:30:35.762Z,100472.89
2018-10-02T14:33:40.054Z,100466.93
2018-10-02T14:36:44.344Z,100465.59
2018-10-02T14:39:48.640Z,100462.67
2018-10-02T14:42:52.914Z,100455.59
2018-10-02T14:45:57.189Z,100469.38
2018-10-02T14:49:01.461Z,100480.99
2018-10-02T14:52:05.779Z,100486.58
2018-10-02T14:55:10.134Z,100492.81
2018-10-02T14:58:14.404Z,100496.04
2018-10-02T15:01:18.685Z,100492.91
2018-10-02T15:04:22.981Z,100512.74
2018-10-02T15:07:27.272Z,100516.60
2018-10-02T15:10:31.531Z,100518.11
2018-10-02T15:13:35.796Z,100520.38
2018-10-02T15:16:40.077Z,100521.81
2018-10-02T15:19:44.824Z,100527.79
2018-10-02T15:22:49.123Z,100524.53
2018-10-02T15:25:53.392Z,100534.08
2018-10-02T15:28:57.680Z,100526.11
2018-10-02T15:32:01.974Z,100509.55
2018-10-02T15:35:06.277Z,100518.16
2018-10-02T15:38:10.604Z,100516.95
2018-10-02T15:41:14.893Z,100523.37
2018-10-02T15:44:19.159Z,100520.12
2018-10-02T15:47:23.464Z,100510.55
2018-10-02T15:50:27.728Z,100500.95
2018-10-02T15:53:32.017Z,100498.88
2018-10-02T15:56:36.306Z,100497.06
2018-10-02T15:59:40.590Z,100508.06
2018-10-02T16:02:44.882Z,100510.69
2018-10-02T16:05:49.179Z,100505.13
2018-10-02T16:08:53.447Z,100505.81
2018-10-02T16:11:57.702Z,100522.99
2018-10-02T16:15:02.058Z,100530.77
2018-10-02T16:18:06.476Z,100522.39
2018-10-02T16:21:10.669Z,100521.14
2018-10-02T16:24:14.930Z,100530.36
2018-10-02T16:27:19.183Z,100541.95
2018-10-02T16:30:23.508Z,100535.78
2018-10-02T16:33:27.749Z,100545.47
2018-10-02T16:36:32.008Z,100549.07
2018-10-02T16:39:36.281Z,100563.36
2018-10-02T16:42:40.533Z,100563.47
2018-10-02T16:45:44.805Z,100547.89
2018-10-02T16:48:49.082Z,100550.73
2018-10-02T16:51:53.370Z,100557.38
2018-10-02T16:54:57.668Z,100563.89
2018-10-02T16:58:01.935Z,100558.45
2018-10-02T17:01:06.228Z,100550.68
2018-10-02T17:04:10.645Z,100560.81
2018-10-02T17:07:14.845Z,100595.35
2018-10-02T17:10:19.087Z,100596.79
2018-10-02T17:13:23.341Z,100609.28
2018-10-02T17:16:27.788Z,100572.47
2018-10-02T17:19:32.061Z,100577.70
2018-10-02T17:22:36.336Z,100578.87
2018-10-02T17:25:40.585Z,100572.63
2018-10-02T17:28:44.890Z,100575.97
2018-10-02T17:31:49.157Z,100570.68
2018-10-02T17:34:53.404Z,100581.49
2018-10-02T17:37:57.643Z,100574.47
2018-10-02T17:41:01.935Z,100583.28
2018-10-02T17:44:06.161Z,100588.27
2018-10-02T17:47:10.753Z,100578.69
2018-10-02T17:50:15.041Z,100585.87
2018-10-02T17:53:19.332Z,100578.52
2018-10-02T17:56:23.618Z,100584.05
2018-10-02T17:59:27.887Z,100576.47
2018-10-02T18:02:32.156Z,100575.57
2018-10-02T18:05:36.774Z,100570.54
2018-10-02T18:08:41.106Z,100567.27
2018-10-02T18:11:45.381Z,100566.61
2018-10-02T18:14:49.699Z,100570.16
2018-10-02T18:17:53.952Z,100569.32
2018-10-02T18:20:58.249Z,100563.22
2018-10-02T18:24:02.558Z,100573.86
2018-10-02T18:27:06.824Z,100573.80
2018-10-02T18:30:11.108Z,100554.86
2018-10-02T18:33:15.390Z,100568.16
2018-10-02T18:36:19.659Z,100558.48
2018-10-02T18:39:23.973Z,100568.83
2018-10-02T18:42:28.348Z,100571.98
2018-10-02T18:45:32.698Z,100560.80
2018-10-02T18:48:36.986Z,100570.89
2018-10-02T18:51:43.822Z,100568.98
2018-10-02T18:54:48.421Z,100576.86
2018-10-02T18:57:55.938Z,100590.05
2018-10-02T19:01:00.720Z,100613.16
2018-10-02T19:04:04.982Z,100610.27
2018-10-02T19:07:09.913Z,100607.02
2018-10-02T19:10:15.170Z,100616.02
2018-10-02T19:13:19.600Z,100618.80
2018-10-02T19:16:28.697Z,100608.13
2018-10-02T19:19:38.157Z,100594.23
2018-10-02T19:22:42.581Z,100597.92
2018-10-02T19:25:52.286Z,100598.59
2018-10-02T19:28:57.129Z,100596.55
2018-10-02T19:32:10.374Z,100621.82
2018-10-02T19:35:14.726Z,100616.30
2018-10-02T19:39:22.984Z,100620.86
2018-10-02T19:42:27.648Z,100598.24
2018-10-02T19:45:37.316Z,100617.24
2018-10-02T19:48:41.765Z,100623.80
2018-10-02T19:51:51.293Z,100622.28
2018-10-02T19:54:56.105Z,100625.51
2018-10-02T19:58:00.531Z,100629.06
2018-10-02T20:01:05.580Z,100622.12
2018-10-02T20:04:10.564Z,100610.75
2018-10-02T20:07:15.320Z,100587.58
2018-10-02T20:10:19.790Z,100582.25
2018-10-02T20:13:25.103Z,100582.98
2018-10-02T20:16:29.434Z,100591.98
2018-10-02T20:19:34.408Z,100586.41
2018-10-02T20:22:38.690Z,100612.38
2018-10-02T20:25:43.493Z,100623.62
2018-10-02T20:28:48.745Z,100603.87
2018-10-02T20:31:54.007Z,100600.38
2018-10-02T20:34:58.884Z,100590.42
2018-10-02T20:38:05.564Z,100597.38
2018-10-02T20:41:11.174Z,100589.06
2018-10-02T20:44:16.526Z,100590.94
2018-10-02T20:47:20.902Z,100585.28
2018-10-02T20:50:26.113Z,100583.93
2018-10-02T20:53:30.987Z,100587.25
2018-10-02T20:56:35.226Z,100580.02
2018-10-02T20:59:39.770Z,100588.71
2018-10-02T21:02:46.564Z,100606.42
2018-10-02T21:05:50.925Z,100641.49
2018-10-02T21:08:57.825Z,100633.51
2018-10-02T21:12:02.501Z,100614.27
2018-10-02T21:15:07.282Z,100603.55
2018-10-02T21:18:12.321Z,100592.69
2018-10-02T21:21:17.571Z,100604.42
2018-10-02T21:24:21.944Z,100611.81
2018-10-02T21:27:26.800Z,100605.42
2018-10-02T21:30:31.589Z,100619.83
2018-10-02T21:33:36.541Z,100642.46
2018-10-02T21:36:40.863Z,100605.20
2018-10-02T21:39:45.453Z,100606.29
2018-10-02T21:42:49.902Z,100599.95
2018-10-02T21:45:54.608Z,100596.04
2018-10-02T21:48:59.826Z,100610.28
2018-10-02T21:52:04.300Z,100609.15
2018-10-02T21:55:09.576Z,100595.26
2018-10-02T21:58:14.593Z,100595.36
2018-10-02T22:01:19.057Z,100587.22
2018-10-02T22:04:23.976Z,100588.64
2018-10-02T22:07:28.605Z,100591.42
2018-10-02T22:10:33.079Z,100593.33
2018-10-02T22:13:38.823Z,100596.63
2018-10-02T22:16:43.867Z,100599.27
2018-10-02T22:19:48.698Z,100602.22
2018-10-02T22:22:53.844Z,100599.21
2018-10-02T22:25:59.738Z,100592.30
2018-10-02T22:29:04.677Z,100595.85
2018-10-02T22:32:09.401Z,100587.88
2018-10-02T22:35:13.713Z,100589.52
2018-10-02T22:38:17.973Z,100593.06
2018-10-02T22:41:22.379Z,100587.62
2018-10-02T22:44:26.888Z,100579.95
2018-10-02T22:47:31.985Z,100577.95
2018-10-02T22:50:36.344Z,100557.79
2018-10-02T22:53:40.740Z,100578.31
2018-10-02T22:56:45.053Z,100592.13
2018-10-02T22:59:50.411Z,100592.42
2018-10-02T23:02:55.016Z,100579.67
2018-10-02T23:05:59.412Z,100569.93
2018-10-02T23:09:04.137Z,100560.86
2018-10-02T23:12:09.725Z,100570.75
2018-10-02T23:15:13.989Z,100559.70
2018-10-02T23:18:18.381Z,100567.05
2018-10-02T23:21:22.689Z,100577.59
2018-10-02T23:24:26.981Z,100550.36
2018-10-02T23:27:31.315Z,100578.29
2018-10-02T23:30:35.689Z,100578.29
2018-10-02T23:33:39.954Z,100586.99
2018-10-02T23:36:44.242Z,100587.52
2018-10-02T23:39:48.648Z,100589.10
2018-10-02T23:42:52.950Z,100594.22
2018-10-02T23:45:57.284Z,100603.42
2018-10-02T23:49:01.573Z,100613.23
2018-10-02T23:52:05.836Z,100604.77
2018-10-02T23:55:10.148Z,100610.33
2018-10-02T23:58:14.453Z,100611.82
